sensor_id;sensor_type;location;lat;lon;timestamp;pressure;altitude;pressure_sealevel;temperature;humidity
70968;BME280;58629;48.808;8.820;2023-08-07T00:00:32;96977.28;;;10.24;100.00
70968;BME280;58629;48.808;8.820;2023-08-07T00:02:58;96980.22;;;10.30;100.00
70968;BME280;58629;48.808;8.820;2023-08-07T00:05:23;96976.56;;;10.24;100.00
70968;BME280;58629;48.808;8.820;2023-08-07T00:07:49;96980.34;;;10.23;100.00
70968;BME280;58629;48.808;8.820;2023-08-07T00:10:14;96979.59;;;10.22;100.00
70968;BME280;58629;48.808;8.820;2023-08-07T00:12:39;96997.06;;;10.20;100.00
70968;BME280;58629;48.808;8.820;2023-08-07T00:15:05;96987.94;;;10.21;100.00
70968;BME280;58629;48.808;8.820;2023-08-07T00:17:31;96986.81;;;10.22;100.00
70968;BME280;58629;48.808;8.820;2023-08-07T00:19:56;96996.56;;;10.25;100.00
70968;BME280;58629;48.808;8.820;2023-08-07T00:22:22;96987.16;;;10.24;100.00
70968;BME280;58629;48.808;8.820;2023-08-07T00:24:47;96991.28;;;10.25;100.00
70968;BME280;58629;48.808;8.820;2023-08-07T00:27:13;96986.25;;;10.30;100.00
70968;BME280;58629;48.808;8.820;2023-08-07T00:29:39;96991.97;;;10.29;100.00
70968;BME280;58629;48.808;8.820;2023-08-07T00:32:05;96982.13;;;10.29;100.00
70968;BME280;58629;48.808;8.820;2023-08-07T00:34:30;96986.25;;;10.30;100.00
70968;BME280;58629;48.808;8.820;2023-08-07T00:36:56;96991.22;;;10.28;100.00
70968;BME280;58629;48.808;8.820;2023-08-07T00:39:21;96997.25;;;10.29;100.00
70968;BME280;58629;48.808;8.820;2023-08-07T00:41:47;97001.06;;;10.28;100.00
70968;BME280;58629;48.808;8.820;2023-08-07T00:44:12;97005.19;;;10.29;100.00
70968;BME280;58629;48.808;8.820;2023-08-07T00:46:38;96995.34;;;10.29;100.00
70968;BME280;58629;48.808;8.820;2023-08-07T00:49:05;96999.41;;;10.34;100.00
70968;BME280;58629;48.808;8.820;2023-08-07T00:51:31;97005.38;;;10.38;100.00
70968;BME280;58629;48.808;8.820;2023-08-07T00:53:56;97000.38;;;10.43;100.00
70968;BME280;58629;48.808;8.820;2023-08-07T00:56:22;97001.94;;;10.41;100.00
70968;BME280;58629;48.808;8.820;2023-08-07T00:58:49;97009.13;;;10.40;100.00
70968;BME280;58629;48.808;8.820;2023-08-07T01:01:15;97004.50;;;10.44;100.00
70968;BME280;58629;48.808;8.820;2023-08-07T01:03:40;96995.91;;;10.40;100.00
70968;BME280;58629;48.808;8.820;2023-08-07T01:06:06;97008.38;;;10.40;100.00
70968;BME280;58629;48.808;8.820;2023-08-07T01:08:31;97012.47;;;10.44;100.00
70968;BME280;58629;48.808;8.820;2023-08-07T01:16:29;97020.41;;;10.44;100.00
70968;BME280;58629;48.808;8.820;2023-08-07T01:18:58;97020.88;;;10.39;100.00
70968;BME280;58629;48.808;8.820;2023-08-07T01:21:25;97021.00;;;10.32;100.00
70968;BME280;58629;48.808;8.820;2023-08-07T01:23:50;97026.22;;;10.36;100.00
70968;BME280;58629;48.808;8.820;2023-08-07T01:26:18;97025.09;;;10.37;100.00
70968;BME280;58629;48.808;8.820;2023-08-07T01:31:22;97019.38;;;10.38;100.00
70968;BME280;58629;48.808;8.820;2023-08-07T01:33:57;97023.53;;;10.39;100.00
70968;BME280;58629;48.808;8.820;2023-08-07T01:36:26;97030.72;;;10.39;100.00
70968;BME280;58629;48.808;8.820;2023-08-07T01:38:52;97026.19;;;10.39;98.64
70968;BME280;58629;48.808;8.820;2023-08-07T01:41:19;97019.03;;;10.36;99.38
70968;BME280;58629;48.808;8.820;2023-08-07T01:43:44;97027.31;;;10.38;99.50
70968;BME280;58629;48.808;8.820;2023-08-07T01:46:10;97027.38;;;10.35;100.00
70968;BME280;58629;48.808;8.820;2023-08-07T01:48:35;97020.19;;;10.35;100.00
70968;BME280;58629;48.808;8.820;2023-08-07T01:51:01;97031.75;;;10.45;99.01
70968;BME280;58629;48.808;8.820;2023-08-07T01:53:26;97026.09;;;10.43;100.00
70968;BME280;58629;48.808;8.820;2023-08-07T01:55:51;97035.16;;;10.45;98.90
70968;BME280;58629;48.808;8.820;2023-08-07T01:58:17;97048.09;;;10.40;99.39
70968;BME280;58629;48.808;8.820;2023-08-07T02:00:42;97038.25;;;10.40;99.05
70968;BME280;58629;48.808;8.820;2023-08-07T02:03:07;97035.66;;;10.37;99.53
70968;BME280;58629;48.808;8.820;2023-08-07T02:05:32;97046.25;;;10.37;99.23
70968;BME280;58629;48.808;8.820;2023-08-07T02:07:58;97034.13;;;10.39;99.49
70968;BME280;58629;48.808;8.820;2023-08-07T02:10:23;97048.44;;;10.42;98.87
70968;BME280;58629;48.808;8.820;2023-08-07T02:12:49;97048.03;;;10.43;98.71
70968;BME280;58629;48.808;8.820;2023-08-07T02:15:14;97051.13;;;10.38;98.57
70968;BME280;58629;48.808;8.820;2023-08-07T02:17:40;97048.50;;;10.38;97.73
70968;BME280;58629;48.808;8.820;2023-08-07T02:20:06;97049.31;;;10.35;99.32
70968;BME280;58629;48.808;8.820;2023-08-07T02:22:32;97055.69;;;10.38;97.85
70968;BME280;58629;48.808;8.820;2023-08-07T02:24:57;97064.09;;;10.33;98.97
70968;BME280;58629;48.808;8.820;2023-08-07T02:27:22;97054.66;;;10.32;98.63
70968;BME280;58629;48.808;8.820;2023-08-07T02:29:48;97054.34;;;10.30;98.00
70968;BME280;58629;48.808;8.820;2023-08-07T02:32:13;97052.84;;;10.29;98.31
70968;BME280;58629;48.808;8.820;2023-08-07T02:34:38;97061.97;;;10.24;99.05
70968;BME280;58629;48.808;8.820;2023-08-07T02:37:04;97049.09;;;10.26;97.61
70968;BME280;58629;48.808;8.820;2023-08-07T02:39:29;97056.84;;;10.37;96.57
70968;BME280;58629;48.808;8.820;2023-08-07T02:41:54;97054.03;;;10.24;98.64
70968;BME280;58629;48.808;8.820;2023-08-07T02:44:19;97051.38;;;10.24;97.67
70968;BME280;58629;48.808;8.820;2023-08-07T02:46:45;97043.59;;;10.17;98.00
70968;BME280;58629;48.808;8.820;2023-08-07T02:49:11;97048.13;;;10.17;96.78
70968;BME280;58629;48.808;8.820;2023-08-07T02:51:36;97052.72;;;10.13;97.36
70968;BME280;58629;48.808;8.820;2023-08-07T02:54:01;97051.25;;;10.08;96.91
70968;BME280;58629;48.808;8.820;2023-08-07T02:56:27;97041.44;;;10.09;96.27
70968;BME280;58629;48.808;8.820;2023-08-07T02:58:52;97055.13;;;10.04;97.40
70968;BME280;58629;48.808;8.820;2023-08-07T03:01:17;97046.38;;;10.07;96.91
70968;BME280;58629;48.808;8.820;2023-08-07T03:03:43;97063.41;;;10.06;96.86
70968;BME280;58629;48.808;8.820;2023-08-07T03:06:08;97052.88;;;10.02;98.50
70968;BME280;58629;48.808;8.820;2023-08-07T03:08:33;97051.63;;;10.10;97.39
70968;BME280;58629;48.808;8.820;2023-08-07T03:10:59;97051.25;;;10.12;98.11
70968;BME280;58629;48.808;8.820;2023-08-07T03:13:25;97063.31;;;10.13;97.80
70968;BME280;58629;48.808;8.820;2023-08-07T03:15:58;97055.72;;;10.15;97.77
70968;BME280;58629;48.808;8.820;2023-08-07T03:18:24;97062.19;;;10.14;99.07
70968;BME280;58629;48.808;8.820;2023-08-07T03:20:49;97053.00;;;10.18;96.70
70968;BME280;58629;48.808;8.820;2023-08-07T03:23:14;97059.47;;;10.17;97.40
70968;BME280;58629;48.808;8.820;2023-08-07T03:25:40;97048.53;;;10.15;97.82
70968;BME280;58629;48.808;8.820;2023-08-07T03:28:05;97061.78;;;10.15;97.98
70968;BME280;58629;48.808;8.820;2023-08-07T03:30:30;97057.63;;;10.14;97.80
70968;BME280;58629;48.808;8.820;2023-08-07T03:32:56;97054.25;;;10.14;97.64
70968;BME280;58629;48.808;8.820;2023-08-07T03:35:21;97056.53;;;10.12;97.38
70968;BME280;58629;48.808;8.820;2023-08-07T03:37:46;97055.41;;;10.09;98.19
70968;BME280;58629;48.808;8.820;2023-08-07T03:40:12;97052.00;;;10.09;98.32
70968;BME280;58629;48.808;8.820;2023-08-07T03:42:37;97055.38;;;10.13;97.50
70968;BME280;58629;48.808;8.820;2023-08-07T03:45:02;97062.56;;;10.12;97.82
70968;BME280;58629;48.808;8.820;2023-08-07T03:47:28;97067.13;;;10.12;97.16
70968;BME280;58629;48.808;8.820;2023-08-07T03:49:53;97060.66;;;10.13;97.06
70968;BME280;58629;48.808;8.820;2023-08-07T03:52:18;97061.84;;;10.08;97.31
70968;BME280;58629;48.808;8.820;2023-08-07T03:54:44;97066.78;;;10.10;97.20
70968;BME280;58629;48.808;8.820;2023-08-07T03:57:09;97069.44;;;10.06;96.93
70968;BME280;58629;48.808;8.820;2023-08-07T03:59:36;97064.50;;;10.08;97.03
70968;BME280;58629;48.808;8.820;2023-08-07T04:02:01;97064.16;;;10.06;96.89
70968;BME280;58629;48.808;8.820;2023-08-07T04:04:26;97063.31;;;10.13;94.70
70968;BME280;58629;48.808;8.820;2023-08-07T04:06:52;97076.47;;;10.16;94.57
70968;BME280;58629;48.808;8.820;2023-08-07T04:09:17;97073.09;;;10.16;95.15
70968;BME280;58629;48.808;8.820;2023-08-07T04:11:42;97072.75;;;10.14;95.55
70968;BME280;58629;48.808;8.820;2023-08-07T04:14:08;97080.34;;;10.12;94.40
70968;BME280;58629;48.808;8.820;2023-08-07T04:16:33;97069.03;;;10.11;95.47
70968;BME280;58629;48.808;8.820;2023-08-07T04:18:58;97068.66;;;10.09;95.10
70968;BME280;58629;48.808;8.820;2023-08-07T04:21:24;97078.47;;;10.09;96.04
70968;BME280;58629;48.808;8.820;2023-08-07T04:23:49;97079.22;;;10.09;95.83
70968;BME280;58629;48.808;8.820;2023-08-07T04:26:14;97081.50;;;10.11;95.90
70968;BME280;58629;48.808;8.820;2023-08-07T04:28:40;97082.59;;;10.13;96.08
70968;BME280;58629;48.808;8.820;2023-08-07T04:31:05;97084.84;;;10.15;95.59
70968;BME280;58629;48.808;8.820;2023-08-07T04:33:31;97069.22;;;10.20;95.70
70968;BME280;58629;48.808;8.820;2023-08-07T04:35:56;97077.50;;;10.22;96.26
70968;BME280;58629;48.808;8.820;2023-08-07T04:38:21;97083.16;;;10.24;96.23
70968;BME280;58629;48.808;8.820;2023-08-07T04:40:47;97082.34;;;10.27;96.36
70968;BME280;58629;48.808;8.820;2023-08-07T04:43:14;97083.50;;;10.26;96.08
70968;BME280;58629;48.808;8.820;2023-08-07T04:45:40;97079.44;;;10.22;97.16
70968;BME280;58629;48.808;8.820;2023-08-07T04:48:07;97089.88;;;10.29;96.31
70968;BME280;58629;48.808;8.820;2023-08-07T04:50:33;97081.53;;;10.30;95.08
70968;BME280;58629;48.808;8.820;2023-08-07T04:52:59;97090.56;;;10.33;96.01
70968;BME280;58629;48.808;8.820;2023-08-07T04:55:25;97082.97;;;10.35;96.18
70968;BME280;58629;48.808;8.820;2023-08-07T04:57:50;97080.06;;;10.49;94.28
70968;BME280;58629;48.808;8.820;2023-08-07T05:00:19;97088.09;;;10.45;95.54
70968;BME280;58629;48.808;8.820;2023-08-07T05:02:44;97084.16;;;10.54;94.57
70968;BME280;58629;48.808;8.820;2023-08-07T05:05:10;97089.81;;;10.56;95.35
70968;BME280;58629;48.808;8.820;2023-08-07T05:07:35;97087.41;;;10.61;94.13
70968;BME280;58629;48.808;8.820;2023-08-07T05:10:02;97095.72;;;10.63;95.03
70968;BME280;58629;48.808;8.820;2023-08-07T05:12:27;97092.22;;;10.66;95.70
70968;BME280;58629;48.808;8.820;2023-08-07T05:14:53;97084.63;;;10.68;95.08
70968;BME280;58629;48.808;8.820;2023-08-07T05:17:18;97094.97;;;10.82;94.65
70968;BME280;58629;48.808;8.820;2023-08-07T05:19:43;97086.66;;;10.80;94.16
70968;BME280;58629;48.808;8.820;2023-08-07T05:22:08;97090.41;;;10.83;91.79
70968;BME280;58629;48.808;8.820;2023-08-07T05:24:34;97089.19;;;10.87;93.55
70968;BME280;58629;48.808;8.820;2023-08-07T05:27:13;97101.13;;;10.95;92.77
70968;BME280;58629;48.808;8.820;2023-08-07T05:29:38;97106.38;;;10.99;92.40
70968;BME280;58629;48.808;8.820;2023-08-07T05:32:13;97111.19;;;11.04;92.51
70968;BME280;58629;48.808;8.820;2023-08-07T05:34:40;97106.97;;;11.06;93.73
70968;BME280;58629;48.808;8.820;2023-08-07T05:37:06;97108.13;;;11.05;91.57
70968;BME280;58629;48.808;8.820;2023-08-07T05:39:32;97116.41;;;11.07;90.10
70968;BME280;58629;48.808;8.820;2023-08-07T05:41:57;97116.41;;;11.07;91.17
70968;BME280;58629;48.808;8.820;2023-08-07T05:44:26;97123.13;;;11.12;91.15
70968;BME280;58629;48.808;8.820;2023-08-07T05:46:51;97110.97;;;11.14;89.53
70968;BME280;58629;48.808;8.820;2023-08-07T05:49:17;97114.44;;;11.11;90.89
70968;BME280;58629;48.808;8.820;2023-08-07T05:51:42;97118.19;;;11.14;90.31
70968;BME280;58629;48.808;8.820;2023-08-07T05:54:08;97119.34;;;11.13;89.46
70968;BME280;58629;48.808;8.820;2023-08-07T05:56:34;97122.72;;;11.13;90.29
70968;BME280;58629;48.808;8.820;2023-08-07T05:58:59;97119.34;;;11.13;91.50
70968;BME280;58629;48.808;8.820;2023-08-07T06:01:25;97132.03;;;11.21;90.87
70968;BME280;58629;48.808;8.820;2023-08-07T06:03:59;97130.81;;;11.26;91.27
70968;BME280;58629;48.808;8.820;2023-08-07T06:06:25;97141.66;;;11.31;91.12
70968;BME280;58629;48.808;8.820;2023-08-07T06:08:56;97140.13;;;11.34;90.91
70968;BME280;58629;48.808;8.820;2023-08-07T06:11:21;97136.97;;;11.39;91.90
70968;BME280;58629;48.808;8.820;2023-08-07T06:13:48;97132.00;;;11.41;91.26
70968;BME280;58629;48.808;8.820;2023-08-07T06:16:13;97130.69;;;11.49;90.25
70968;BME280;58629;48.808;8.820;2023-08-07T06:18:38;97130.13;;;11.58;91.41
70968;BME280;58629;48.808;8.820;2023-08-07T06:21:04;97138.75;;;11.62;89.69
70968;BME280;58629;48.808;8.820;2023-08-07T06:23:34;97129.53;;;11.70;87.16
70968;BME280;58629;48.808;8.820;2023-08-07T06:26:00;97137.16;;;11.68;88.32
70968;BME280;58629;48.808;8.820;2023-08-07T06:28:29;97131.94;;;11.61;88.00
70968;BME280;58629;48.808;8.820;2023-08-07T06:31:00;97137.16;;;11.68;88.97
70968;BME280;58629;48.808;8.820;2023-08-07T06:33:26;97145.78;;;11.72;87.28
70968;BME280;58629;48.808;8.820;2023-08-07T06:35:52;97154.50;;;11.72;87.43
70968;BME280;58629;48.808;8.820;2023-08-07T06:38:17;97152.84;;;11.78;85.08
70968;BME280;58629;48.808;8.820;2023-08-07T06:40:44;97152.00;;;11.81;85.50
70968;BME280;58629;48.808;8.820;2023-08-07T06:43:09;97161.47;;;11.82;85.15
70968;BME280;58629;48.808;8.820;2023-08-07T06:45:34;97168.41;;;11.92;86.13
70968;BME280;58629;48.808;8.820;2023-08-07T06:48:00;97164.44;;;12.00;84.11
70968;BME280;58629;48.808;8.820;2023-08-07T06:50:25;97176.31;;;11.96;84.11
70968;BME280;58629;48.808;8.820;2023-08-07T06:52:50;97165.84;;;11.89;84.13
70968;BME280;58629;48.808;8.820;2023-08-07T06:55:16;97169.44;;;11.82;83.18
70968;BME280;58629;48.808;8.820;2023-08-07T06:57:41;97170.66;;;11.78;83.14
70968;BME280;58629;48.808;8.820;2023-08-07T07:00:07;97164.25;;;11.75;85.67
70968;BME280;58629;48.808;8.820;2023-08-07T07:02:32;97168.94;;;11.87;84.89
70968;BME280;58629;48.808;8.820;2023-08-07T07:04:58;97162.31;;;12.28;86.10
70968;BME280;58629;48.808;8.820;2023-08-07T07:07:23;97166.00;;;12.46;84.40
70968;BME280;58629;48.808;8.820;2023-08-07T07:09:48;97158.88;;;12.59;82.25
70968;BME280;58629;48.808;8.820;2023-08-07T07:12:14;97166.28;;;12.80;83.17
70968;BME280;58629;48.808;8.820;2023-08-07T07:14:39;97168.06;;;12.99;82.34
70968;BME280;58629;48.808;8.820;2023-08-07T07:17:04;97163.41;;;13.03;81.63
70968;BME280;58629;48.808;8.820;2023-08-07T07:19:30;97162.59;;;13.07;80.80
70968;BME280;58629;48.808;8.820;2023-08-07T07:21:55;97168.34;;;13.18;79.99
70968;BME280;58629;48.808;8.820;2023-08-07T07:24:20;97173.22;;;13.07;79.65
70968;BME280;58629;48.808;8.820;2023-08-07T07:26:46;97183.09;;;13.35;78.70
70968;BME280;58629;48.808;8.820;2023-08-07T07:29:11;97175.53;;;13.33;78.17
70968;BME280;58629;48.808;8.820;2023-08-07T07:31:36;97176.81;;;13.29;78.62
70968;BME280;58629;48.808;8.820;2023-08-07T07:34:02;97181.28;;;13.32;78.79
70968;BME280;58629;48.808;8.820;2023-08-07T07:36:28;97185.00;;;13.34;78.18
70968;BME280;58629;48.808;8.820;2023-08-07T07:38:54;97195.69;;;13.18;77.32
70968;BME280;58629;48.808;8.820;2023-08-07T07:41:19;97204.75;;;13.21;77.67
70968;BME280;58629;48.808;8.820;2023-08-07T07:43:46;97201.94;;;13.12;77.49
70968;BME280;58629;48.808;8.820;2023-08-07T07:46:11;97199.34;;;13.24;76.59
70968;BME280;58629;48.808;8.820;2023-08-07T07:48:36;97196.88;;;13.17;76.29
70968;BME280;58629;48.808;8.820;2023-08-07T07:51:03;97206.13;;;13.25;77.54
70968;BME280;58629;48.808;8.820;2023-08-07T07:53:29;97207.31;;;13.24;77.12
70968;BME280;58629;48.808;8.820;2023-08-07T07:55:55;97214.75;;;13.29;76.25
70968;BME280;58629;48.808;8.820;2023-08-07T07:58:21;97208.81;;;13.79;74.57
70968;BME280;58629;48.808;8.820;2023-08-07T08:00:47;97205.56;;;13.59;73.76
70968;BME280;58629;48.808;8.820;2023-08-07T08:03:12;97211.50;;;13.38;74.42
70968;BME280;58629;48.808;8.820;2023-08-07T08:05:39;97208.25;;;13.71;73.36
70968;BME280;58629;48.808;8.820;2023-08-07T08:08:06;97207.75;;;14.27;71.06
70968;BME280;58629;48.808;8.820;2023-08-07T08:10:34;97207.38;;;14.75;70.56
70968;BME280;58629;48.808;8.820;2023-08-07T08:13:00;97209.41;;;14.71;69.70
70968;BME280;58629;48.808;8.820;2023-08-07T08:15:25;97217.41;;;15.05;70.35
70968;BME280;58629;48.808;8.820;2023-08-07T08:17:50;97224.50;;;14.87;67.56
70968;BME280;58629;48.808;8.820;2023-08-07T08:20:16;97223.69;;;14.77;66.14
70968;BME280;58629;48.808;8.820;2023-08-07T08:22:43;97222.72;;;14.71;68.39
70968;BME280;58629;48.808;8.820;2023-08-07T08:25:09;97211.44;;;15.01;67.50
70968;BME280;58629;48.808;8.820;2023-08-07T08:27:35;97215.25;;;14.78;64.94
70968;BME280;58629;48.808;8.820;2023-08-07T08:30:01;97223.22;;;14.91;61.58
70968;BME280;58629;48.808;8.820;2023-08-07T08:32:26;97220.66;;;15.43;62.12
70968;BME280;58629;48.808;8.820;2023-08-07T08:34:51;97214.13;;;15.23;62.91
70968;BME280;58629;48.808;8.820;2023-08-07T08:37:17;97217.72;;;14.60;64.16
70968;BME280;58629;48.808;8.820;2023-08-07T08:39:42;97219.50;;;14.29;64.40
70968;BME280;58629;48.808;8.820;2023-08-07T08:42:11;97223.09;;;14.10;65.09
70968;BME280;58629;48.808;8.820;2023-08-07T08:44:39;97231.31;;;14.16;67.04
70968;BME280;58629;48.808;8.820;2023-08-07T08:47:04;97213.09;;;14.39;66.42
70968;BME280;58629;48.808;8.820;2023-08-07T08:49:46;97221.38;;;14.54;66.91
70968;BME280;58629;48.808;8.820;2023-08-07T08:52:12;97209.59;;;14.76;65.65
70968;BME280;58629;48.808;8.820;2023-08-07T08:54:38;97210.78;;;14.75;64.97
70968;BME280;58629;48.808;8.820;2023-08-07T08:57:05;97224.69;;;14.45;66.39
70968;BME280;58629;48.808;8.820;2023-08-07T08:59:31;97235.88;;;14.53;65.01
70968;BME280;58629;48.808;8.820;2023-08-07T09:01:56;97226.28;;;14.43;64.10
70968;BME280;58629;48.808;8.820;2023-08-07T09:04:22;97227.22;;;14.61;65.17
70968;BME280;58629;48.808;8.820;2023-08-07T09:06:47;97226.16;;;14.71;62.83
70968;BME280;58629;48.808;8.820;2023-08-07T09:09:14;97219.56;;;14.63;63.39
70968;BME280;58629;48.808;8.820;2023-08-07T09:11:43;97218.06;;;14.50;63.39
70968;BME280;58629;48.808;8.820;2023-08-07T09:14:11;97227.25;;;14.49;63.00
70968;BME280;58629;48.808;8.820;2023-08-07T09:16:39;97234.22;;;14.68;64.64
70968;BME280;58629;48.808;8.820;2023-08-07T09:19:05;97231.50;;;14.46;63.81
70968;BME280;58629;48.808;8.820;2023-08-07T09:21:30;97236.91;;;14.68;65.95
70968;BME280;58629;48.808;8.820;2023-08-07T09:23:56;97235.63;;;14.72;64.47
70968;BME280;58629;48.808;8.820;2023-08-07T09:26:22;97237.06;;;14.39;63.37
70968;BME280;58629;48.808;8.820;2023-08-07T09:28:51;97255.78;;;14.23;63.18
70968;BME280;58629;48.808;8.820;2023-08-07T09:31:17;97238.94;;;14.26;64.10
70968;BME280;58629;48.808;8.820;2023-08-07T09:33:42;97252.22;;;14.30;64.69
70968;BME280;58629;48.808;8.820;2023-08-07T09:36:07;97269.25;;;14.45;64.03
70968;BME280;58629;48.808;8.820;2023-08-07T09:38:33;97250.59;;;14.57;62.23
70968;BME280;58629;48.808;8.820;2023-08-07T09:40:59;97266.22;;;14.81;62.25
70968;BME280;58629;48.808;8.820;2023-08-07T09:43:25;97261.81;;;14.87;63.50
70968;BME280;58629;48.808;8.820;2023-08-07T09:45:50;97263.41;;;14.97;62.93
70968;BME280;58629;48.808;8.820;2023-08-07T09:48:23;97265.03;;;14.82;61.88
70968;BME280;58629;48.808;8.820;2023-08-07T09:50:50;97270.56;;;14.87;62.13
70968;BME280;58629;48.808;8.820;2023-08-07T09:53:15;97259.88;;;15.21;62.41
70968;BME280;58629;48.808;8.820;2023-08-07T09:55:41;97266.03;;;15.09;61.88
70968;BME280;58629;48.808;8.820;2023-08-07T09:58:08;97268.81;;;15.27;63.08
70968;BME280;58629;48.808;8.820;2023-08-07T10:00:34;97262.25;;;16.06;61.21
70968;BME280;58629;48.808;8.820;2023-08-07T10:03:01;97260.88;;;16.72;58.72
70968;BME280;58629;48.808;8.820;2023-08-07T10:05:27;97252.41;;;17.09;57.24
70968;BME280;58629;48.808;8.820;2023-08-07T10:07:53;97254.63;;;17.65;54.74
70968;BME280;58629;48.808;8.820;2023-08-07T10:10:19;97255.84;;;17.10;57.64
70968;BME280;58629;48.808;8.820;2023-08-07T10:12:46;97243.63;;;17.00;55.08
70968;BME280;58629;48.808;8.820;2023-08-07T10:15:14;97250.50;;;17.01;56.56
70968;BME280;58629;48.808;8.820;2023-08-07T10:17:39;97259.22;;;16.74;56.97
70968;BME280;58629;48.808;8.820;2023-08-07T10:20:05;97248.25;;;17.54;57.30
70968;BME280;58629;48.808;8.820;2023-08-07T10:22:34;97250.63;;;17.33;54.81
70968;BME280;58629;48.808;8.820;2023-08-07T10:25:02;97252.72;;;17.39;56.11
70968;BME280;58629;48.808;8.820;2023-08-07T10:27:33;97262.53;;;17.42;56.16
70968;BME280;58629;48.808;8.820;2023-08-07T10:30:02;97250.66;;;16.97;54.95
70968;BME280;58629;48.808;8.820;2023-08-07T10:32:27;97266.56;;;16.12;56.66
70968;BME280;58629;48.808;8.820;2023-08-07T10:34:53;97274.84;;;15.75;57.85
70968;BME280;58629;48.808;8.820;2023-08-07T10:37:38;97272.72;;;15.48;58.91
70968;BME280;58629;48.808;8.820;2023-08-07T10:40:06;97275.69;;;15.72;60.27
70968;BME280;58629;48.808;8.820;2023-08-07T10:43:00;97283.69;;;15.93;60.67
70968;BME280;58629;48.808;8.820;2023-08-07T10:45:36;97276.13;;;15.92;59.62
70968;BME280;58629;48.808;8.820;2023-08-07T10:48:07;97275.19;;;15.86;60.40
70968;BME280;58629;48.808;8.820;2023-08-07T10:50:35;97260.41;;;15.94;60.65
70968;BME280;58629;48.808;8.820;2023-08-07T10:53:18;97265.34;;;16.04;61.06
70968;BME280;58629;48.808;8.820;2023-08-07T10:55:44;97269.84;;;16.16;58.72
70968;BME280;58629;48.808;8.820;2023-08-07T10:58:29;97274.84;;;16.36;58.10
70968;BME280;58629;48.808;8.820;2023-08-07T11:03:53;97272.78;;;15.57;58.49
70968;BME280;58629;48.808;8.820;2023-08-07T11:08:49;97267.63;;;15.41;59.11
70968;BME280;58629;48.808;8.820;2023-08-07T11:11:15;97267.16;;;15.21;58.30
70968;BME280;58629;48.808;8.820;2023-08-07T11:13:40;97290.84;;;14.85;58.99
70968;BME280;58629;48.808;8.820;2023-08-07T11:16:06;97286.81;;;14.55;59.65
70968;BME280;58629;48.808;8.820;2023-08-07T11:18:32;97296.22;;;14.47;60.91
70968;BME280;58629;48.808;8.820;2023-08-07T11:20:58;97292.25;;;14.39;61.74
70968;BME280;58629;48.808;8.820;2023-08-07T11:23:28;97289.06;;;14.31;62.87
70968;BME280;58629;48.808;8.820;2023-08-07T11:25:54;97285.22;;;14.20;62.89
70968;BME280;58629;48.808;8.820;2023-08-07T11:28:20;97297.25;;;14.12;63.53
70968;BME280;58629;48.808;8.820;2023-08-07T11:30:50;97296.16;;;14.09;64.59
70968;BME280;58629;48.808;8.820;2023-08-07T11:33:19;97304.47;;;14.11;64.40
70968;BME280;58629;48.808;8.820;2023-08-07T11:35:47;97298.94;;;14.18;64.59
70968;BME280;58629;48.808;8.820;2023-08-07T11:38:15;97293.66;;;14.31;65.86
70968;BME280;58629;48.808;8.820;2023-08-07T11:40:53;97294.81;;;14.42;65.04
70968;BME280;58629;48.808;8.820;2023-08-07T11:43:18;97298.75;;;14.50;65.67
70968;BME280;58629;48.808;8.820;2023-08-07T11:45:43;97298.88;;;14.47;64.90
70968;BME280;58629;48.808;8.820;2023-08-07T11:48:09;97295.56;;;14.43;65.04
70968;BME280;58629;48.808;8.820;2023-08-07T11:50:35;97303.16;;;14.32;65.39
70968;BME280;58629;48.808;8.820;2023-08-07T11:53:00;97301.91;;;14.20;67.58
70968;BME280;58629;48.808;8.820;2023-08-07T11:55:28;97303.09;;;14.19;69.96
70968;BME280;58629;48.808;8.820;2023-08-07T11:57:53;97308.88;;;14.30;68.93
70968;BME280;58629;48.808;8.820;2023-08-07T12:00:19;97305.47;;;14.42;68.86
70968;BME280;58629;48.808;8.820;2023-08-07T12:02:45;97312.41;;;14.65;68.32
70968;BME280;58629;48.808;8.820;2023-08-07T12:05:11;97310.97;;;14.86;68.09
70968;BME280;58629;48.808;8.820;2023-08-07T12:07:38;97307.22;;;15.08;65.36
70968;BME280;58629;48.808;8.820;2023-08-07T12:10:06;97302.16;;;15.23;65.74
70968;BME280;58629;48.808;8.820;2023-08-07T12:12:33;97303.44;;;15.18;64.03
70968;BME280;58629;48.808;8.820;2023-08-07T12:14:59;97307.81;;;15.25;64.90
70968;BME280;58629;48.808;8.820;2023-08-07T12:17:25;97303.81;;;15.29;65.20
70968;BME280;58629;48.808;8.820;2023-08-07T12:19:50;97305.81;;;15.50;64.28
70968;BME280;58629;48.808;8.820;2023-08-07T12:22:19;97299.59;;;15.75;63.60
70968;BME280;58629;48.808;8.820;2023-08-07T12:24:45;97292.63;;;15.99;63.28
70968;BME280;58629;48.808;8.820;2023-08-07T12:27:10;97285.63;;;16.23;62.76
70968;BME280;58629;48.808;8.820;2023-08-07T12:29:36;97287.00;;;16.37;60.45
70968;BME280;58629;48.808;8.820;2023-08-07T12:32:02;97288.00;;;16.30;60.45
70968;BME280;58629;48.808;8.820;2023-08-07T12:34:28;97293.41;;;16.39;59.97
70968;BME280;58629;48.808;8.820;2023-08-07T12:36:53;97290.38;;;16.28;58.17
70968;BME280;58629;48.808;8.820;2023-08-07T12:39:19;97291.84;;;16.51;59.03
70968;BME280;58629;48.808;8.820;2023-08-07T12:41:45;97295.19;;;16.42;59.63
70968;BME280;58629;48.808;8.820;2023-08-07T12:44:11;97287.22;;;16.21;57.43
70968;BME280;58629;48.808;8.820;2023-08-07T12:46:37;97285.56;;;16.14;58.30
70968;BME280;58629;48.808;8.820;2023-08-07T12:49:03;97281.56;;;16.10;58.97
70968;BME280;58629;48.808;8.820;2023-08-07T12:51:29;97299.72;;;15.93;59.19
70968;BME280;58629;48.808;8.820;2023-08-07T12:53:54;97288.50;;;15.77;59.07
70968;BME280;58629;48.808;8.820;2023-08-07T12:56:19;97286.50;;;15.68;59.22
70968;BME280;58629;48.808;8.820;2023-08-07T12:58:45;97288.06;;;15.56;60.36
70968;BME280;58629;48.808;8.820;2023-08-07T13:01:11;97292.78;;;15.52;61.24
70968;BME280;58629;48.808;8.820;2023-08-07T13:03:37;97296.19;;;15.53;61.77
70968;BME280;58629;48.808;8.820;2023-08-07T13:06:02;97294.53;;;15.68;60.59
70968;BME280;58629;48.808;8.820;2023-08-07T13:08:30;97296.09;;;16.09;61.40